sensor_id;sensor_type;location;lat;lon;timestamp;P1;durP1;ratioP1;P2;durP2;ratioP2
15198;SDS011;7700;48.654;9.070;2022-09-16T00:00:19;6.22;;;5.63;;
15198;SDS011;7700;48.654;9.070;2022-09-16T00:02:46;7.95;;;6.32;;
15198;SDS011;7700;48.654;9.070;2022-09-16T00:05:12;6.85;;;6.00;;
15198;SDS011;7700;48.654;9.070;2022-09-16T00:07:38;5.97;;;5.43;;
15198;SDS011;7700;48.654;9.070;2022-09-16T00:10:04;6.72;;;5.75;;
15198;SDS011;7700;48.654;9.070;2022-09-16T00:12:30;6.78;;;5.80;;
15198;SDS011;7700;48.654;9.070;2022-09-16T00:14:56;5.95;;;5.43;;
15198;SDS011;7700;48.654;9.070;2022-09-16T00:17:22;6.35;;;5.75;;
15198;SDS011;7700;48.654;9.070;2022-09-16T00:19:48;5.80;;;5.28;;
15198;SDS011;7700;48.654;9.070;2022-09-16T00:22:15;6.95;;;6.28;;
15198;SDS011;7700;48.654;9.070;2022-09-16T00:24:41;6.22;;;5.63;;
15198;SDS011;7700;48.654;9.070;2022-09-16T00:27:07;6.60;;;6.03;;
15198;SDS011;7700;48.654;9.070;2022-09-16T00:29:33;6.70;;;5.97;;
15198;SDS011;7700;48.654;9.070;2022-09-16T00:31:59;13.82;;;6.00;;
15198;SDS011;7700;48.654;9.070;2022-09-16T00:34:25;6.38;;;5.75;;
15198;SDS011;7700;48.654;9.070;2022-09-16T00:36:51;6.78;;;6.10;;
15198;SDS011;7700;48.654;9.070;2022-09-16T00:39:17;5.63;;;5.13;;
15198;SDS011;7700;48.654;9.070;2022-09-16T00:41:43;6.80;;;5.95;;
15198;SDS011;7700;48.654;9.070;2022-09-16T00:46:54;8.15;;;5.97;;
15198;SDS011;7700;48.654;9.070;2022-09-16T00:49:23;7.13;;;5.95;;
15198;SDS011;7700;48.654;9.070;2022-09-16T00:51:50;7.03;;;5.82;;
15198;SDS011;7700;48.654;9.070;2022-09-16T00:54:16;5.97;;;5.20;;
15198;SDS011;7700;48.654;9.070;2022-09-16T00:56:43;7.85;;;5.88;;
15198;SDS011;7700;48.654;9.070;2022-09-16T00:59:19;6.10;;;5.28;;
15198;SDS011;7700;48.654;9.070;2022-09-16T01:01:46;7.65;;;5.47;;
15198;SDS011;7700;48.654;9.070;2022-09-16T01:04:15;5.95;;;5.15;;
15198;SDS011;7700;48.654;9.070;2022-09-16T01:06:42;6.72;;;5.03;;
15198;SDS011;7700;48.654;9.070;2022-09-16T01:09:08;5.95;;;5.35;;
15198;SDS011;7700;48.654;9.070;2022-09-16T01:11:34;5.32;;;4.93;;
15198;SDS011;7700;48.654;9.070;2022-09-16T01:14:00;5.22;;;4.80;;
15198;SDS011;7700;48.654;9.070;2022-09-16T01:17:07;6.28;;;5.47;;
15198;SDS011;7700;48.654;9.070;2022-09-16T01:20:00;5.80;;;5.40;;
15198;SDS011;7700;48.654;9.070;2022-09-16T01:30:35;6.30;;;5.68;;
15198;SDS011;7700;48.654;9.070;2022-09-16T01:33:05;7.85;;;6.15;;
15198;SDS011;7700;48.654;9.070;2022-09-16T01:38:43;7.45;;;5.82;;
15198;SDS011;7700;48.654;9.070;2022-09-16T01:41:18;6.65;;;5.85;;
15198;SDS011;7700;48.654;9.070;2022-09-16T01:43:58;8.02;;;5.43;;
15198;SDS011;7700;48.654;9.070;2022-09-16T01:46:38;6.13;;;5.60;;
15198;SDS011;7700;48.654;9.070;2022-09-16T01:49:13;5.85;;;5.10;;
15198;SDS011;7700;48.654;9.070;2022-09-16T01:54:30;6.72;;;5.78;;
15198;SDS011;7700;48.654;9.070;2022-09-16T01:59:28;5.97;;;5.38;;
15198;SDS011;7700;48.654;9.070;2022-09-16T02:02:01;6.82;;;6.03;;
15198;SDS011;7700;48.654;9.070;2022-09-16T02:04:29;6.55;;;5.90;;
15198;SDS011;7700;48.654;9.070;2022-09-16T02:06:56;6.45;;;5.63;;
15198;SDS011;7700;48.654;9.070;2022-09-16T02:09:37;6.90;;;6.05;;
15198;SDS011;7700;48.654;9.070;2022-09-16T02:12:07;6.32;;;5.55;;
15198;SDS011;7700;48.654;9.070;2022-09-16T02:14:35;6.72;;;5.97;;
15198;SDS011;7700;48.654;9.070;2022-09-16T02:17:07;7.30;;;6.28;;
15198;SDS011;7700;48.654;9.070;2022-09-16T02:22:00;6.90;;;5.20;;
15198;SDS011;7700;48.654;9.070;2022-09-16T02:24:27;6.72;;;5.60;;
15198;SDS011;7700;48.654;9.070;2022-09-16T02:26:55;6.60;;;5.82;;
15198;SDS011;7700;48.654;9.070;2022-09-16T02:29:24;6.18;;;5.60;;
15198;SDS011;7700;48.654;9.070;2022-09-16T02:31:52;5.78;;;5.28;;
15198;SDS011;7700;48.654;9.070;2022-09-16T02:34:22;6.68;;;4.78;;
15198;SDS011;7700;48.654;9.070;2022-09-16T02:36:51;6.50;;;5.90;;
15198;SDS011;7700;48.654;9.070;2022-09-16T02:39:20;5.97;;;5.25;;
15198;SDS011;7700;48.654;9.070;2022-09-16T02:41:46;6.83;;;5.83;;
15198;SDS011;7700;48.654;9.070;2022-09-16T02:44:13;6.60;;;5.95;;
15198;SDS011;7700;48.654;9.070;2022-09-16T02:46:44;6.65;;;6.05;;
15198;SDS011;7700;48.654;9.070;2022-09-16T02:54:52;5.65;;;5.15;;
15198;SDS011;7700;48.654;9.070;2022-09-16T02:57:21;6.95;;;6.00;;
15198;SDS011;7700;48.654;9.070;2022-09-16T02:59:47;6.38;;;5.68;;
15198;SDS011;7700;48.654;9.070;2022-09-16T03:02:13;6.07;;;5.55;;
15198;SDS011;7700;48.654;9.070;2022-09-16T03:04:40;7.82;;;5.80;;
15198;SDS011;7700;48.654;9.070;2022-09-16T03:07:07;6.25;;;5.70;;
15198;SDS011;7700;48.654;9.070;2022-09-16T03:09:34;6.18;;;5.57;;
15198;SDS011;7700;48.654;9.070;2022-09-16T03:12:06;5.63;;;5.18;;
15198;SDS011;7700;48.654;9.070;2022-09-16T03:14:48;5.53;;;5.07;;
15198;SDS011;7700;48.654;9.070;2022-09-16T03:22:24;6.87;;;4.80;;
15198;SDS011;7700;48.654;9.070;2022-09-16T03:27:35;6.00;;;5.43;;
15198;SDS011;7700;48.654;9.070;2022-09-16T03:30:06;7.38;;;5.72;;
15198;SDS011;7700;48.654;9.070;2022-09-16T03:35:07;7.07;;;6.13;;
15198;SDS011;7700;48.654;9.070;2022-09-16T03:37:34;7.60;;;6.30;;
15198;SDS011;7700;48.654;9.070;2022-09-16T03:40:03;7.33;;;5.80;;
15198;SDS011;7700;48.654;9.070;2022-09-16T03:42:30;6.05;;;5.55;;
15198;SDS011;7700;48.654;9.070;2022-09-16T03:44:56;6.70;;;6.05;;
15198;SDS011;7700;48.654;9.070;2022-09-16T03:47:22;6.97;;;6.35;;
15198;SDS011;7700;48.654;9.070;2022-09-16T03:49:48;5.82;;;5.30;;
15198;SDS011;7700;48.654;9.070;2022-09-16T03:52:15;8.23;;;5.82;;
15198;SDS011;7700;48.654;9.070;2022-09-16T03:54:43;8.18;;;5.47;;
15198;SDS011;7700;48.654;9.070;2022-09-16T03:57:10;6.30;;;5.70;;
15198;SDS011;7700;48.654;9.070;2022-09-16T03:59:35;7.20;;;6.00;;
15198;SDS011;7700;48.654;9.070;2022-09-16T04:02:02;6.18;;;5.68;;
15198;SDS011;7700;48.654;9.070;2022-09-16T04:04:27;11.15;;;5.72;;
15198;SDS011;7700;48.654;9.070;2022-09-16T04:06:53;6.10;;;5.60;;
15198;SDS011;7700;48.654;9.070;2022-09-16T04:09:19;6.97;;;5.50;;
15198;SDS011;7700;48.654;9.070;2022-09-16T04:11:45;6.88;;;5.60;;
15198;SDS011;7700;48.654;9.070;2022-09-16T04:14:11;5.50;;;5.10;;
15198;SDS011;7700;48.654;9.070;2022-09-16T04:16:37;6.10;;;5.60;;
15198;SDS011;7700;48.654;9.070;2022-09-16T04:19:03;6.32;;;5.50;;
15198;SDS011;7700;48.654;9.070;2022-09-16T04:21:30;6.40;;;5.40;;
15198;SDS011;7700;48.654;9.070;2022-09-16T04:23:56;6.57;;;5.78;;
15198;SDS011;7700;48.654;9.070;2022-09-16T04:26:22;7.82;;;5.57;;
15198;SDS011;7700;48.654;9.070;2022-09-16T04:28:50;6.32;;;5.72;;
15198;SDS011;7700;48.654;9.070;2022-09-16T04:31:17;9.98;;;6.45;;
15198;SDS011;7700;48.654;9.070;2022-09-16T04:33:43;7.45;;;6.00;;
15198;SDS011;7700;48.654;9.070;2022-09-16T04:36:12;7.05;;;6.30;;
15198;SDS011;7700;48.654;9.070;2022-09-16T04:38:42;5.40;;;5.00;;
15198;SDS011;7700;48.654;9.070;2022-09-16T04:41:09;6.05;;;5.45;;
15198;SDS011;7700;48.654;9.070;2022-09-16T04:43:36;6.32;;;5.72;;
15198;SDS011;7700;48.654;9.070;2022-09-16T04:46:02;8.10;;;6.10;;
15198;SDS011;7700;48.654;9.070;2022-09-16T04:48:29;8.35;;;6.43;;
15198;SDS011;7700;48.654;9.070;2022-09-16T04:51:00;10.17;;;6.67;;
15198;SDS011;7700;48.654;9.070;2022-09-16T04:53:26;6.15;;;5.65;;
15198;SDS011;7700;48.654;9.070;2022-09-16T04:55:52;10.77;;;5.97;;
15198;SDS011;7700;48.654;9.070;2022-09-16T04:58:18;7.00;;;5.32;;
15198;SDS011;7700;48.654;9.070;2022-09-16T05:00:44;6.68;;;5.30;;
15198;SDS011;7700;48.654;9.070;2022-09-16T05:03:10;5.70;;;5.10;;
15198;SDS011;7700;48.654;9.070;2022-09-16T05:05:36;9.15;;;6.53;;
15198;SDS011;7700;48.654;9.070;2022-09-16T05:08:02;5.85;;;5.10;;
15198;SDS011;7700;48.654;9.070;2022-09-16T05:10:28;8.55;;;5.80;;
15198;SDS011;7700;48.654;9.070;2022-09-16T05:12:54;5.80;;;5.30;;
15198;SDS011;7700;48.654;9.070;2022-09-16T05:15:20;6.43;;;5.45;;
15198;SDS011;7700;48.654;9.070;2022-09-16T05:17:46;6.85;;;5.80;;
15198;SDS011;7700;48.654;9.070;2022-09-16T05:20:12;6.25;;;5.65;;
15198;SDS011;7700;48.654;9.070;2022-09-16T05:22:38;7.28;;;5.50;;
15198;SDS011;7700;48.654;9.070;2022-09-16T05:25:04;8.80;;;6.20;;
15198;SDS011;7700;48.654;9.070;2022-09-16T05:27:31;6.63;;;5.97;;
15198;SDS011;7700;48.654;9.070;2022-09-16T05:29:57;6.57;;;6.07;;
15198;SDS011;7700;48.654;9.070;2022-09-16T05:32:24;6.85;;;5.97;;
15198;SDS011;7700;48.654;9.070;2022-09-16T05:34:50;9.07;;;6.65;;
15198;SDS011;7700;48.654;9.070;2022-09-16T05:37:16;6.28;;;5.70;;
15198;SDS011;7700;48.654;9.070;2022-09-16T05:39:42;8.15;;;5.15;;
15198;SDS011;7700;48.654;9.070;2022-09-16T05:42:08;6.28;;;5.10;;
15198;SDS011;7700;48.654;9.070;2022-09-16T05:44:34;6.05;;;5.35;;
15198;SDS011;7700;48.654;9.070;2022-09-16T05:47:00;6.00;;;5.40;;
15198;SDS011;7700;48.654;9.070;2022-09-16T05:49:26;6.70;;;6.03;;
15198;SDS011;7700;48.654;9.070;2022-09-16T05:51:53;7.17;;;5.77;;
15198;SDS011;7700;48.654;9.070;2022-09-16T05:54:19;7.28;;;5.82;;
15198;SDS011;7700;48.654;9.070;2022-09-16T05:56:47;6.75;;;6.07;;
15198;SDS011;7700;48.654;9.070;2022-09-16T05:59:14;7.53;;;6.20;;
15198;SDS011;7700;48.654;9.070;2022-09-16T06:01:40;7.73;;;6.13;;
15198;SDS011;7700;48.654;9.070;2022-09-16T06:04:08;6.85;;;6.20;;
15198;SDS011;7700;48.654;9.070;2022-09-16T06:06:36;6.00;;;5.40;;
15198;SDS011;7700;48.654;9.070;2022-09-16T06:09:21;7.88;;;6.00;;
15198;SDS011;7700;48.654;9.070;2022-09-16T06:11:49;8.02;;;6.00;;
15198;SDS011;7700;48.654;9.070;2022-09-16T06:14:16;7.18;;;6.47;;
15198;SDS011;7700;48.654;9.070;2022-09-16T06:16:42;6.13;;;5.63;;
15198;SDS011;7700;48.654;9.070;2022-09-16T06:19:10;9.52;;;5.75;;
15198;SDS011;7700;48.654;9.070;2022-09-16T06:21:37;6.70;;;5.63;;
15198;SDS011;7700;48.654;9.070;2022-09-16T06:24:03;6.93;;;5.03;;
15198;SDS011;7700;48.654;9.070;2022-09-16T06:26:33;6.07;;;5.22;;
15198;SDS011;7700;48.654;9.070;2022-09-16T06:28:59;5.40;;;4.82;;
15198;SDS011;7700;48.654;9.070;2022-09-16T06:31:26;5.15;;;4.20;;
15198;SDS011;7700;48.654;9.070;2022-09-16T06:33:52;5.22;;;4.10;;
15198;SDS011;7700;48.654;9.070;2022-09-16T06:36:23;5.00;;;4.50;;
15198;SDS011;7700;48.654;9.070;2022-09-16T06:38:49;5.72;;;4.60;;
15198;SDS011;7700;48.654;9.070;2022-09-16T06:41:16;4.20;;;3.80;;
15198;SDS011;7700;48.654;9.070;2022-09-16T06:43:42;7.65;;;4.60;;
15198;SDS011;7700;48.654;9.070;2022-09-16T06:46:10;5.68;;;4.32;;
15198;SDS011;7700;48.654;9.070;2022-09-16T06:48:40;4.82;;;4.40;;
15198;SDS011;7700;48.654;9.070;2022-09-16T06:51:11;5.43;;;4.35;;
15198;SDS011;7700;48.654;9.070;2022-09-16T06:53:38;4.95;;;4.00;;
15198;SDS011;7700;48.654;9.070;2022-09-16T06:56:06;6.38;;;4.30;;
15198;SDS011;7700;48.654;9.070;2022-09-16T06:58:32;4.43;;;4.03;;
15198;SDS011;7700;48.654;9.070;2022-09-16T07:01:03;4.72;;;3.72;;
15198;SDS011;7700;48.654;9.070;2022-09-16T07:03:29;7.22;;;4.00;;
15198;SDS011;7700;48.654;9.070;2022-09-16T07:05:56;5.53;;;3.65;;
15198;SDS011;7700;48.654;9.070;2022-09-16T07:08:22;4.03;;;3.72;;
15198;SDS011;7700;48.654;9.070;2022-09-16T07:10:58;5.03;;;3.80;;
15198;SDS011;7700;48.654;9.070;2022-09-16T07:13:25;3.90;;;3.50;;
15198;SDS011;7700;48.654;9.070;2022-09-16T07:15:51;7.15;;;4.00;;
15198;SDS011;7700;48.654;9.070;2022-09-16T07:18:17;7.45;;;4.75;;
15198;SDS011;7700;48.654;9.070;2022-09-16T07:20:43;6.75;;;3.70;;
15198;SDS011;7700;48.654;9.070;2022-09-16T07:23:09;4.82;;;3.70;;
15198;SDS011;7700;48.654;9.070;2022-09-16T07:25:35;4.90;;;4.10;;
15198;SDS011;7700;48.654;9.070;2022-09-16T07:28:01;4.85;;;4.32;;
15198;SDS011;7700;48.654;9.070;2022-09-16T07:30:28;4.60;;;3.97;;
15198;SDS011;7700;48.654;9.070;2022-09-16T07:32:55;6.95;;;4.50;;
15198;SDS011;7700;48.654;9.070;2022-09-16T07:35:21;5.55;;;3.97;;
15198;SDS011;7700;48.654;9.070;2022-09-16T07:37:47;5.75;;;4.47;;
15198;SDS011;7700;48.654;9.070;2022-09-16T07:40:13;5.00;;;4.32;;
15198;SDS011;7700;48.654;9.070;2022-09-16T07:42:39;6.22;;;4.13;;
15198;SDS011;7700;48.654;9.070;2022-09-16T07:45:06;4.38;;;3.50;;
15198;SDS011;7700;48.654;9.070;2022-09-16T07:47:32;5.13;;;4.30;;
15198;SDS011;7700;48.654;9.070;2022-09-16T07:49:58;5.07;;;4.10;;
15198;SDS011;7700;48.654;9.070;2022-09-16T07:52:25;4.60;;;4.20;;
15198;SDS011;7700;48.654;9.070;2022-09-16T07:54:53;6.55;;;3.80;;
15198;SDS011;7700;48.654;9.070;2022-09-16T07:57:20;4.45;;;3.85;;
15198;SDS011;7700;48.654;9.070;2022-09-16T07:59:46;4.32;;;3.70;;
15198;SDS011;7700;48.654;9.070;2022-09-16T08:02:12;6.05;;;4.28;;
15198;SDS011;7700;48.654;9.070;2022-09-16T08:04:38;5.43;;;3.92;;
15198;SDS011;7700;48.654;9.070;2022-09-16T08:07:05;6.70;;;3.92;;
15198;SDS011;7700;48.654;9.070;2022-09-16T08:09:31;4.68;;;3.38;;
15198;SDS011;7700;48.654;9.070;2022-09-16T08:11:57;4.18;;;3.78;;
15198;SDS011;7700;48.654;9.070;2022-09-16T08:14:23;5.30;;;3.75;;
15198;SDS011;7700;48.654;9.070;2022-09-16T08:16:49;4.38;;;3.97;;
15198;SDS011;7700;48.654;9.070;2022-09-16T08:19:16;5.80;;;3.80;;
15198;SDS011;7700;48.654;9.070;2022-09-16T08:21:42;4.90;;;3.85;;
15198;SDS011;7700;48.654;9.070;2022-09-16T08:24:08;4.47;;;4.00;;
15198;SDS011;7700;48.654;9.070;2022-09-16T08:26:34;5.45;;;3.92;;
15198;SDS011;7700;48.654;9.070;2022-09-16T08:29:01;4.28;;;3.97;;
15198;SDS011;7700;48.654;9.070;2022-09-16T08:31:27;5.20;;;3.85;;
15198;SDS011;7700;48.654;9.070;2022-09-16T08:33:53;4.80;;;4.20;;
15198;SDS011;7700;48.654;9.070;2022-09-16T08:36:21;4.30;;;3.90;;
15198;SDS011;7700;48.654;9.070;2022-09-16T08:38:48;3.85;;;3.38;;
15198;SDS011;7700;48.654;9.070;2022-09-16T08:51:51;4.90;;;4.23;;
15198;SDS011;7700;48.654;9.070;2022-09-16T08:54:31;4.88;;;4.32;;
15198;SDS011;7700;48.654;9.070;2022-09-16T08:56:59;6.07;;;4.87;;
15198;SDS011;7700;48.654;9.070;2022-09-16T08:59:27;4.67;;;4.27;;
15198;SDS011;7700;48.654;9.070;2022-09-16T09:01:56;3.97;;;3.60;;
15198;SDS011;7700;48.654;9.070;2022-09-16T09:04:24;5.85;;;4.20;;
15198;SDS011;7700;48.654;9.070;2022-09-16T09:12:09;6.85;;;4.78;;
15198;SDS011;7700;48.654;9.070;2022-09-16T09:20:28;4.38;;;3.97;;
15198;SDS011;7700;48.654;9.070;2022-09-16T09:28:16;6.85;;;5.63;;
15198;SDS011;7700;48.654;9.070;2022-09-16T09:30:39;5.40;;;4.65;;
15198;SDS011;7700;48.654;9.070;2022-09-16T09:35:42;5.35;;;4.85;;
15198;SDS011;7700;48.654;9.070;2022-09-16T09:40:45;6.22;;;5.60;;
15198;SDS011;7700;48.654;9.070;2022-09-16T09:43:15;7.03;;;5.47;;
15198;SDS011;7700;48.654;9.070;2022-09-16T09:45:44;4.90;;;4.50;;
15198;SDS011;7700;48.654;9.070;2022-09-16T09:50:40;5.43;;;4.93;;
15198;SDS011;7700;48.654;9.070;2022-09-16T09:55:37;6.05;;;5.47;;
15198;SDS011;7700;48.654;9.070;2022-09-16T10:03:30;5.28;;;4.78;;
15198;SDS011;7700;48.654;9.070;2022-09-16T10:05:56;5.75;;;4.70;;
15198;SDS011;7700;48.654;9.070;2022-09-16T10:08:27;5.45;;;4.95;;
15198;SDS011;7700;48.654;9.070;2022-09-16T10:10:55;8.37;;;7.63;;
15198;SDS011;7700;48.654;9.070;2022-09-16T10:13:22;4.63;;;3.80;;
15198;SDS011;7700;48.654;9.070;2022-09-16T10:15:51;4.70;;;3.90;;
15198;SDS011;7700;48.654;9.070;2022-09-16T10:20:54;7.03;;;4.43;;
15198;SDS011;7700;48.654;9.070;2022-09-16T10:23:22;4.20;;;3.22;;
15198;SDS011;7700;48.654;9.070;2022-09-16T10:25:48;5.57;;;3.20;;
15198;SDS011;7700;48.654;9.070;2022-09-16T10:28:19;4.03;;;3.35;;
15198;SDS011;7700;48.654;9.070;2022-09-16T10:30:46;4.03;;;3.55;;
15198;SDS011;7700;48.654;9.070;2022-09-16T10:33:16;2.97;;;2.78;;
15198;SDS011;7700;48.654;9.070;2022-09-16T10:35:50;3.92;;;3.33;;
15198;SDS011;7700;48.654;9.070;2022-09-16T10:38:17;3.88;;;2.80;;
15198;SDS011;7700;48.654;9.070;2022-09-16T10:40:50;2.83;;;2.60;;
15198;SDS011;7700;48.654;9.070;2022-09-16T10:43:17;3.95;;;3.55;;
15198;SDS011;7700;48.654;9.070;2022-09-16T10:45:47;3.60;;;3.30;;
15198;SDS011;7700;48.654;9.070;2022-09-16T10:48:14;4.53;;;4.03;;
15198;SDS011;7700;48.654;9.070;2022-09-16T10:51:41;5.88;;;3.55;;
15198;SDS011;7700;48.654;9.070;2022-09-16T10:53:38;3.22;;;3.03;;
15198;SDS011;7700;48.654;9.070;2022-09-16T10:56:06;3.85;;;3.55;;
15198;SDS011;7700;48.654;9.070;2022-09-16T10:58:32;4.07;;;3.30;;
15198;SDS011;7700;48.654;9.070;2022-09-16T11:01:05;4.68;;;2.90;;
15198;SDS011;7700;48.654;9.070;2022-09-16T11:14:24;3.63;;;2.90;;
15198;SDS011;7700;48.654;9.070;2022-09-16T11:16:58;2.50;;;2.30;;
15198;SDS011;7700;48.654;9.070;2022-09-16T11:24:34;3.72;;;2.55;;
15198;SDS011;7700;48.654;9.070;2022-09-16T11:32:34;3.22;;;2.28;;
15198;SDS011;7700;48.654;9.070;2022-09-16T11:40:53;3.28;;;2.97;;
15198;SDS011;7700;48.654;9.070;2022-09-16T11:48:44;4.05;;;2.78;;
15198;SDS011;7700;48.654;9.070;2022-09-16T11:56:54;3.45;;;1.80;;
15198;SDS011;7700;48.654;9.070;2022-09-16T12:01:51;2.63;;;1.90;;
15198;SDS011;7700;48.654;9.070;2022-09-16T12:04:29;4.80;;;2.17;;
15198;SDS011;7700;48.654;9.070;2022-09-16T12:10:05;1.77;;;1.67;;
15198;SDS011;7700;48.654;9.070;2022-09-16T12:12:18;2.20;;;1.60;;
15198;SDS011;7700;48.654;9.070;2022-09-16T12:14:56;2.15;;;1.70;;
15198;SDS011;7700;48.654;9.070;2022-09-16T12:17:25;6.65;;;6.22;;
15198;SDS011;7700;48.654;9.070;2022-09-16T12:19:54;16.60;;;15.90;;
15198;SDS011;7700;48.654;9.070;2022-09-16T12:22:33;12.38;;;11.60;;
15198;SDS011;7700;48.654;9.070;2022-09-16T12:30:21;51.50;;;49.63;;
15198;SDS011;7700;48.654;9.070;2022-09-16T12:35:27;20.70;;;19.98;;
15198;SDS011;7700;48.654;9.070;2022-09-16T12:37:54;59.95;;;57.78;;
15198;SDS011;7700;48.654;9.070;2022-09-16T12:40:22;24.70;;;23.73;;
15198;SDS011;7700;48.654;9.070;2022-09-16T12:42:54;32.60;;;31.15;;
15198;SDS011;7700;48.654;9.070;2022-09-16T12:45:43;10.57;;;10.13;;
15198;SDS011;7700;48.654;9.070;2022-09-16T12:53:42;10.45;;;9.75;;
15198;SDS011;7700;48.654;9.070;2022-09-16T13:03:45;3.83;;;3.00;;
15198;SDS011;7700;48.654;9.070;2022-09-16T13:06:32;3.58;;;3.30;;
15198;SDS011;7700;48.654;9.070;2022-09-16T13:11:58;5.00;;;4.60;;
15198;SDS011;7700;48.654;9.070;2022-09-16T13:14:48;5.88;;;5.30;;
15198;SDS011;7700;48.654;9.070;2022-09-16T13:17:11;20.48;;;19.55;;
15198;SDS011;7700;48.654;9.070;2022-09-16T13:19:44;41.20;;;39.65;;
15198;SDS011;7700;48.654;9.070;2022-09-16T13:27:32;24.55;;;23.65;;
15198;SDS011;7700;48.654;9.070;2022-09-16T13:30:11;60.65;;;58.55;;
15198;SDS011;7700;48.654;9.070;2022-09-16T13:35:05;151.13;;;146.43;;
15198;SDS011;7700;48.654;9.070;2022-09-16T13:37:56;146.43;;;141.63;;
15198;SDS011;7700;48.654;9.070;2022-09-16T13:40:28;124.50;;;120.43;;
15198;SDS011;7700;48.654;9.070;2022-09-16T13:45:40;148.15;;;143.15;;
15198;SDS011;7700;48.654;9.070;2022-09-16T13:48:15;134.88;;;130.50;;
15198;SDS011;7700;48.654;9.070;2022-09-16T13:50:42;138.05;;;133.48;;
15198;SDS011;7700;48.654;9.070;2022-09-16T13:53:16;121.38;;;117.38;;
15198;SDS011;7700;48.654;9.070;2022-09-16T13:55:43;113.82;;;110.03;;
15198;SDS011;7700;48.654;9.070;2022-09-16T13:58:23;128.18;;;124.00;;
15198;SDS011;7700;48.654;9.070;2022-09-16T14:07:00;110.10;;;106.53;;
15198;SDS011;7700;48.654;9.070;2022-09-16T14:12:10;153.38;;;148.52;;
15198;SDS011;7700;48.654;9.070;2022-09-16T14:14:38;117.40;;;113.43;;
15198;SDS011;7700;48.654;9.070;2022-09-16T14:17:14;110.47;;;106.82;;
15198;SDS011;7700;48.654;9.070;2022-09-16T14:19:41;87.57;;;84.47;;
15198;SDS011;7700;48.654;9.070;2022-09-16T14:22:14;92.00;;;88.65;;
15198;SDS011;7700;48.654;9.070;2022-09-16T14:24:41;103.75;;;100.20;;
15198;SDS011;7700;48.654;9.070;2022-09-16T14:27:27;68.57;;;66.32;;
15198;SDS011;7700;48.654;9.070;2022-09-16T14:29:57;67.53;;;65.13;;
15198;SDS011;7700;48.654;9.070;2022-09-16T14:32:24;50.20;;;48.50;;
15198;SDS011;7700;48.654;9.070;2022-09-16T14:34:51;41.15;;;39.35;;
15198;SDS011;7700;48.654;9.070;2022-09-16T14:37:18;31.95;;;30.70;;
15198;SDS011;7700;48.654;9.070;2022-09-16T14:39:45;31.70;;;30.50;;
15198;SDS011;7700;48.654;9.070;2022-09-16T14:42:16;14.02;;;13.43;;
15198;SDS011;7700;48.654;9.070;2022-09-16T14:44:46;24.60;;;23.55;;
15198;SDS011;7700;48.654;9.070;2022-09-16T14:49:42;26.13;;;25.17;;
15198;SDS011;7700;48.654;9.070;2022-09-16T14:52:16;30.60;;;29.15;;
15198;SDS011;7700;48.654;9.070;2022-09-16T14:54:43;27.83;;;26.73;;
15198;SDS011;7700;48.654;9.070;2022-09-16T14:57:13;22.90;;;22.00;;
15198;SDS011;7700;48.654;9.070;2022-09-16T14:59:40;29.27;;;28.05;;
15198;SDS011;7700;48.654;9.070;2022-09-16T15:02:17;34.42;;;33.17;;
15198;SDS011;7700;48.654;9.070;2022-09-16T15:04:45;26.50;;;25.30;;
15198;SDS011;7700;48.654;9.070;2022-09-16T15:07:16;29.27;;;28.08;;
15198;SDS011;7700;48.654;9.070;2022-09-16T15:09:46;29.02;;;27.77;;
15198;SDS011;7700;48.654;9.070;2022-09-16T15:12:16;29.58;;;28.35;;
15198;SDS011;7700;48.654;9.070;2022-09-16T15:14:43;27.55;;;26.48;;
15198;SDS011;7700;48.654;9.070;2022-09-16T15:17:14;26.70;;;25.60;;
15198;SDS011;7700;48.654;9.070;2022-09-16T15:19:41;37.17;;;35.83;;
15198;SDS011;7700;48.654;9.070;2022-09-16T15:22:07;28.80;;;27.75;;
15198;SDS011;7700;48.654;9.070;2022-09-16T15:24:38;29.10;;;27.90;;
15198;SDS011;7700;48.654;9.070;2022-09-16T15:27:05;33.08;;;31.80;;
15198;SDS011;7700;48.654;9.070;2022-09-16T15:29:32;33.45;;;32.22;;
15198;SDS011;7700;48.654;9.070;2022-09-16T15:32:05;37.13;;;35.67;;
15198;SDS011;7700;48.654;9.070;2022-09-16T15:34:32;35.60;;;34.22;;
15198;SDS011;7700;48.654;9.070;2022-09-16T15:36:58;40.15;;;38.65;;
15198;SDS011;7700;48.654;9.070;2022-09-16T15:42:01;36.42;;;34.95;;
15198;SDS011;7700;48.654;9.070;2022-09-16T15:44:29;31.58;;;30.40;;
15198;SDS011;7700;48.654;9.070;2022-09-16T15:46:55;39.80;;;38.42;;
15198;SDS011;7700;48.654;9.070;2022-09-16T15:49:22;48.60;;;46.90;;
15198;SDS011;7700;48.654;9.070;2022-09-16T15:51:49;53.83;;;51.88;;
15198;SDS011;7700;48.654;9.070;2022-09-16T15:54:25;54.28;;;52.33;;
15198;SDS011;7700;48.654;9.070;2022-09-16T15:57:02;43.97;;;42.40;;
15198;SDS011;7700;48.654;9.070;2022-09-16T15:59:31;44.42;;;42.88;;
15198;SDS011;7700;48.654;9.070;2022-09-16T16:01:59;41.67;;;39.97;;
15198;SDS011;7700;48.654;9.070;2022-09-16T16:04:30;38.35;;;36.97;;
15198;SDS011;7700;48.654;9.070;2022-09-16T16:07:00;47.85;;;46.10;;
15198;SDS011;7700;48.654;9.070;2022-09-16T16:09:27;68.80;;;66.47;;
15198;SDS011;7700;48.654;9.070;2022-09-16T16:11:58;74.55;;;71.88;;
15198;SDS011;7700;48.654;9.070;2022-09-16T16:14:29;94.80;;;91.22;;
15198;SDS011;7700;48.654;9.070;2022-09-16T16:17:40;70.80;;;68.53;;
15198;SDS011;7700;48.654;9.070;2022-09-16T16:19:48;94.35;;;91.20;;
15198;SDS011;7700;48.654;9.070;2022-09-16T16:22:14;101.50;;;98.20;;
15198;SDS011;7700;48.654;9.070;2022-09-16T16:24:41;108.18;;;104.78;;
15198;SDS011;7700;48.654;9.070;2022-09-16T16:27:08;112.22;;;108.32;;
15198;SDS011;7700;48.654;9.070;2022-09-16T16:29:34;142.95;;;138.40;;
15198;SDS011;7700;48.654;9.070;2022-09-16T16:32:06;115.50;;;111.70;;
15198;SDS011;7700;48.654;9.070;2022-09-16T16:34:37;132.05;;;127.90;;
15198;SDS011;7700;48.654;9.070;2022-09-16T16:37:04;137.77;;;133.27;;
15198;SDS011;7700;48.654;9.070;2022-09-16T16:39:30;113.78;;;110.13;;
15198;SDS011;7700;48.654;9.070;2022-09-16T16:41:56;104.05;;;100.70;;
15198;SDS011;7700;48.654;9.070;2022-09-16T16:44:22;111.85;;;108.18;;
15198;SDS011;7700;48.654;9.070;2022-09-16T16:46:49;136.10;;;131.60;;
15198;SDS011;7700;48.654;9.070;2022-09-16T16:49:16;122.00;;;118.13;;
15198;SDS011;7700;48.654;9.070;2022-09-16T16:51:42;146.32;;;141.70;;
15198;SDS011;7700;48.654;9.070;2022-09-16T16:54:09;140.10;;;135.43;;
15198;SDS011;7700;48.654;9.070;2022-09-16T16:56:35;140.10;;;135.65;;
15198;SDS011;7700;48.654;9.070;2022-09-16T16:59:04;144.20;;;139.57;;
15198;SDS011;7700;48.654;9.070;2022-09-16T17:01:30;131.85;;;127.47;;
15198;SDS011;7700;48.654;9.070;2022-09-16T17:03:57;84.03;;;81.25;;
15198;SDS011;7700;48.654;9.070;2022-09-16T17:06:24;131.25;;;126.97;;
15198;SDS011;7700;48.654;9.070;2022-09-16T17:08:50;89.57;;;86.53;;
15198;SDS011;7700;48.654;9.070;2022-09-16T17:11:18;98.20;;;94.97;;
15198;SDS011;7700;48.654;9.070;2022-09-16T17:13:45;70.63;;;68.15;;
15198;SDS011;7700;48.654;9.070;2022-09-16T17:16:12;72.35;;;69.88;;
15198;SDS011;7700;48.654;9.070;2022-09-16T17:18:39;66.60;;;64.40;;
15198;SDS011;7700;48.654;9.070;2022-09-16T17:21:07;53.25;;;51.15;;
15198;SDS011;7700;48.654;9.070;2022-09-16T17:23:33;23.75;;;22.85;;
15198;SDS011;7700;48.654;9.070;2022-09-16T17:26:00;29.00;;;27.80;;
15198;SDS011;7700;48.654;9.070;2022-09-16T17:28:27;41.20;;;39.63;;
15198;SDS011;7700;48.654;9.070;2022-09-16T17:30:53;33.30;;;31.65;;
15198;SDS011;7700;48.654;9.070;2022-09-16T17:33:19;25.58;;;24.48;;
15198;SDS011;7700;48.654;9.070;2022-09-16T17:35:46;21.80;;;20.95;;
15198;SDS011;7700;48.654;9.070;2022-09-16T17:38:12;6.00;;;5.65;;
15198;SDS011;7700;48.654;9.070;2022-09-16T17:40:38;8.88;;;8.25;;
15198;SDS011;7700;48.654;9.070;2022-09-16T17:43:04;9.95;;;9.45;;
15198;SDS011;7700;48.654;9.070;2022-09-16T17:45:31;11.95;;;11.25;;
15198;SDS011;7700;48.654;9.070;2022-09-16T17:47:57;11.27;;;10.65;;
15198;SDS011;7700;48.654;9.070;2022-09-16T17:50:24;5.25;;;4.65;;
15198;SDS011;7700;48.654;9.070;2022-09-16T17:52:50;5.18;;;4.93;;